Time;durP1;ratioP1;P1;durP2;ratioP2;P2;SDS_P1;SDS_P2;PMS_P1;PMS_P2;Temp;Humidity;BMP_temperature;BMP_pressure;BME280_temperature;BME280_humidity;BME280_pressure;Samples;Min_cycle;Max_cycle;Signal;HPM_P1;HPM_P2
2024/03/03 00:02:52;;;;;;;7.47;3.40;;;;;;;;;;10366509;28;20442;-65
2024/03/03 00:07:53;;;;;;;7.82;3.28;;;;;;;;;;10366810;28;20864;-67
2024/03/03 00:12:53;;;;;;;7.17;3.50;;;;;;;;;;10359014;28;20040;-67
2024/03/03 00:17:54;;;;;;;12.60;3.30;;;;;;;;;;10366819;28;20415;-69
2024/03/03 00:22:54;;;;;;;6.40;3.75;;;;;;;;;;10367019;28;20435;-64
2024/03/03 00:27:55;;;;;;;14.38;3.60;;;;;;;;;;10370021;28;20030;-67
2024/03/03 00:32:55;;;;;;;10.38;3.63;;;;;;;;;;10374425;28;20253;-65
2024/03/03 00:37:56;;;;;;;8.75;3.60;;;;;;;;;;10374727;28;20466;-61
2024/03/03 00:42:56;;;;;;;4.90;3.63;;;;;;;;;;10373720;28;20492;-62
2024/03/03 00:47:56;;;;;;;9.97;3.10;;;;;;;;;;10373557;28;20045;-63
2024/03/03 00:52:57;;;;;;;8.07;3.28;;;;;;;;;;10373240;28;20443;-62
2024/03/03 00:57:58;;;;;;;5.78;3.25;;;;;;;;;;10373565;28;20393;-62
2024/03/03 01:02:59;;;;;;;8.30;3.88;;;;;;;;;;10373016;28;20038;-62
2024/03/03 01:07:59;;;;;;;5.95;3.10;;;;;;;;;;10373101;28;20374;-63
2024/03/03 01:13:00;;;;;;;4.40;3.05;;;;;;;;;;10368570;28;20495;-61
2024/03/03 01:18:00;;;;;;;5.50;3.00;;;;;;;;;;10372647;28;20080;-61
2024/03/03 01:23:01;;;;;;;7.05;3.15;;;;;;;;;;10368775;28;20029;-62
2024/03/03 01:28:01;;;;;;;7.45;2.97;;;;;;;;;;10373213;28;20029;-63
2024/03/03 01:33:03;;;;;;;7.00;3.30;;;;;;;;;;10371575;28;20074;-66
2024/03/03 01:38:03;;;;;;;5.00;3.10;;;;;;;;;;10371214;28;20033;-66
2024/03/03 01:43:06;;;;;;;5.75;3.17;;;;;;;;;;10371394;28;20492;-65
2024/03/03 01:48:07;;;;;;;6.80;3.10;;;;;;;;;;10371527;28;20041;-66
2024/03/03 01:53:08;;;;;;;3.95;2.67;;;;;;;;;;10369703;28;20285;-63
2024/03/03 01:58:08;;;;;;;4.65;3.08;;;;;;;;;;10369569;28;20265;-62
2024/03/03 02:03:09;;;;;;;7.78;3.03;;;;;;;;;;10370793;28;20132;-63
2024/03/03 02:08:10;;;;;;;3.28;2.78;;;;;;;;;;10369059;28;20492;-62
2024/03/03 02:13:10;;;;;;;6.00;2.75;;;;;;;;;;10370507;28;20046;-66
2024/03/03 02:18:12;;;;;;;7.88;2.67;;;;;;;;;;10370466;28;20050;-67
2024/03/03 02:23:12;;;;;;;6.70;2.88;;;;;;;;;;10366187;28;20026;-66
2024/03/03 02:28:14;;;;;;;5.97;2.85;;;;;;;;;;10369779;28;20030;-67
2024/03/03 02:33:14;;;;;;;3.90;3.00;;;;;;;;;;10369235;28;20053;-63
2024/03/03 02:38:15;;;;;;;5.82;2.90;;;;;;;;;;10369376;28;20412;-63
2024/03/03 02:43:15;;;;;;;3.20;2.78;;;;;;;;;;10369394;28;20026;-64
2024/03/03 02:48:18;;;;;;;3.28;2.50;;;;;;;;;;10367684;28;20109;-61
2024/03/03 02:53:18;;;;;;;3.90;2.90;;;;;;;;;;10366993;28;20470;-61
2024/03/03 02:58:18;;;;;;;4.73;2.60;;;;;;;;;;10367430;28;20022;-61
2024/03/03 03:03:19;;;;;;;3.73;2.80;;;;;;;;;;10367106;28;20812;-61
2024/03/03 03:08:19;;;;;;;3.65;2.72;;;;;;;;;;10364775;28;20482;-60
2024/03/03 03:13:20;;;;;;;7.90;2.65;;;;;;;;;;10368299;28;20030;-62
2024/03/03 03:18:20;;;;;;;4.25;2.35;;;;;;;;;;10368455;28;20461;-63
2024/03/03 03:23:22;;;;;;;4.32;2.58;;;;;;;;;;10367447;28;20409;-62
2024/03/03 03:28:22;;;;;;;3.53;2.85;;;;;;;;;;10367010;28;20030;-62
2024/03/03 03:33:23;;;;;;;3.15;2.45;;;;;;;;;;10366596;28;20404;-61
2024/03/03 03:38:23;;;;;;;3.78;2.60;;;;;;;;;;10366804;28;20029;-61
2024/03/03 03:43:24;;;;;;;4.63;2.85;;;;;;;;;;10365644;28;20040;-65
2024/03/03 03:48:24;;;;;;;3.20;2.10;;;;;;;;;;10366486;28;20091;-63
2024/03/03 03:53:25;;;;;;;5.35;2.90;;;;;;;;;;10366486;28;20057;-62
2024/03/03 03:58:25;;;;;;;5.97;2.72;;;;;;;;;;10368176;28;20404;-60
2024/03/03 04:03:25;;;;;;;2.17;1.97;;;;;;;;;;10373559;28;20512;-61
2024/03/03 04:08:26;;;;;;;2.20;2.00;;;;;;;;;;10379589;28;20478;-62
2024/03/03 04:13:26;;;;;;;3.63;2.50;;;;;;;;;;10378726;28;20037;-62
2024/03/03 04:18:27;;;;;;;3.85;2.45;;;;;;;;;;10379698;28;20030;-62
2024/03/03 04:23:27;;;;;;;3.43;2.43;;;;;;;;;;10378946;28;20026;-61
2024/03/03 04:28:28;;;;;;;3.13;2.17;;;;;;;;;;10379728;28;20914;-61
2024/03/03 04:33:28;;;;;;;3.00;2.20;;;;;;;;;;10378259;28;20446;-60
2024/03/03 04:38:28;;;;;;;2.47;2.13;;;;;;;;;;10380302;28;20764;-60
2024/03/03 04:43:29;;;;;;;2.97;2.20;;;;;;;;;;10374966;28;20535;-60
2024/03/03 04:48:29;;;;;;;3.67;2.05;;;;;;;;;;10379297;28;20483;-60
2024/03/03 04:53:30;;;;;;;3.28;2.45;;;;;;;;;;10378869;28;20033;-60
2024/03/03 04:58:30;;;;;;;3.37;2.17;;;;;;;;;;10379400;28;20438;-60
2024/03/03 05:03:30;;;;;;;3.20;2.30;;;;;;;;;;10377182;28;20470;-60
2024/03/03 05:08:31;;;;;;;4.27;2.40;;;;;;;;;;10379078;28;20038;-59
2024/03/03 05:13:31;;;;;;;2.90;2.20;;;;;;;;;;10374343;28;20787;-60
2024/03/03 05:18:32;;;;;;;3.23;2.63;;;;;;;;;;10372220;28;20451;-63
2024/03/03 05:23:32;;;;;;;3.25;2.35;;;;;;;;;;10372696;28;20465;-63
2024/03/03 05:28:33;;;;;;;2.40;2.07;;;;;;;;;;10372541;28;20466;-65
2024/03/03 05:33:34;;;;;;;5.17;2.40;;;;;;;;;;10371811;28;20451;-60
2024/03/03 05:38:34;;;;;;;3.53;2.10;;;;;;;;;;10372362;28;20442;-60
2024/03/03 05:43:36;;;;;;;2.67;2.17;;;;;;;;;;10370362;28;20146;-60
2024/03/03 05:48:37;;;;;;;3.35;2.05;;;;;;;;;;10370616;28;20477;-65
2024/03/03 05:53:38;;;;;;;2.42;2.20;;;;;;;;;;10369904;28;20088;-60
2024/03/03 05:58:38;;;;;;;2.50;1.85;;;;;;;;;;10370755;28;20114;-59
2024/03/03 06:03:40;;;;;;;3.13;2.30;;;;;;;;;;10365271;28;20104;-60
2024/03/03 06:08:45;;;;;;;2.50;1.92;;;;;;;;;;10370079;28;20539;-60
2024/03/03 06:13:45;;;;;;;2.00;1.80;;;;;;;;;;10369665;28;20112;-60
2024/03/03 06:18:46;;;;;;;2.90;2.10;;;;;;;;;;10371512;28;20466;-59
2024/03/03 06:23:46;;;;;;;2.97;2.13;;;;;;;;;;10369612;28;20018;-60
2024/03/03 06:28:48;;;;;;;3.70;2.70;;;;;;;;;;10369610;28;20534;-61
2024/03/03 06:33:48;;;;;;;3.67;2.00;;;;;;;;;;10369350;28;20450;-60
2024/03/03 06:38:50;;;;;;;2.78;1.92;;;;;;;;;;10370085;28;20484;-59
2024/03/03 06:43:50;;;;;;;6.70;2.33;;;;;;;;;;10368317;28;20029;-59
2024/03/03 06:48:51;;;;;;;3.40;2.08;;;;;;;;;;10369363;28;20030;-59
2024/03/03 06:53:52;;;;;;;2.93;1.93;;;;;;;;;;10367737;28;20030;-60
2024/03/03 06:58:53;;;;;;;2.10;1.90;;;;;;;;;;10367944;28;21067;-60
2024/03/03 07:09:12;;;;;;;2.53;2.20;;;;;;;;;;10366480;28;20034;-61
2024/03/03 07:14:13;;;;;;;2.75;2.10;;;;;;;;;;10366544;28;20135;-61
2024/03/03 07:19:13;;;;;;;2.90;2.30;;;;;;;;;;10367626;28;20026;-60
2024/03/03 07:24:14;;;;;;;5.38;2.30;;;;;;;;;;10367144;28;20076;-59
2024/03/03 07:29:14;;;;;;;2.38;1.75;;;;;;;;;;10367544;28;20048;-59
2024/03/03 07:34:15;;;;;;;3.63;2.00;;;;;;;;;;10366428;28;20181;-59
2024/03/03 07:39:15;;;;;;;2.50;2.03;;;;;;;;;;10365832;28;20026;-59
2024/03/03 07:44:16;;;;;;;3.33;2.53;;;;;;;;;;10365505;28;20436;-60
2024/03/03 07:49:16;;;;;;;3.10;2.25;;;;;;;;;;10365965;28;20030;-59
2024/03/03 07:54:16;;;;;;;2.05;1.85;;;;;;;;;;10366439;28;20056;-60
2024/03/03 07:59:17;;;;;;;5.03;1.88;;;;;;;;;;10365822;28;20056;-59
2024/03/03 08:04:20;;;;;;;2.77;1.90;;;;;;;;;;10365893;28;20408;-60
2024/03/03 08:09:20;;;;;;;5.22;2.00;;;;;;;;;;10365801;28;20459;-59
2024/03/03 08:14:21;;;;;;;3.40;2.13;;;;;;;;;;10367082;28;20025;-59
2024/03/03 08:19:21;;;;;;;2.47;2.10;;;;;;;;;;10362233;28;20422;-59
2024/03/03 08:24:22;;;;;;;1.92;1.80;;;;;;;;;;10367333;28;20459;-59
2024/03/03 08:29:22;;;;;;;3.92;2.00;;;;;;;;;;10365799;28;20514;-58
2024/03/03 08:34:23;;;;;;;1.87;1.73;;;;;;;;;;10366639;28;20030;-62
2024/03/03 08:39:24;;;;;;;2.00;1.60;;;;;;;;;;10366970;28;20586;-60
2024/03/03 08:44:24;;;;;;;2.13;1.93;;;;;;;;;;10364687;28;20588;-59
2024/03/03 08:49:25;;;;;;;3.55;2.13;;;;;;;;;;10370565;28;20479;-59
2024/03/03 08:54:25;;;;;;;5.60;2.43;;;;;;;;;;10370956;28;20520;-62
2024/03/03 08:59:26;;;;;;;3.47;1.92;;;;;;;;;;10371458;28;20493;-63
2024/03/03 09:04:26;;;;;;;3.50;2.00;;;;;;;;;;10372078;28;20176;-64
2024/03/03 09:09:26;;;;;;;5.13;2.10;;;;;;;;;;10372718;28;20049;-60
2024/03/03 09:14:27;;;;;;;6.47;2.10;;;;;;;;;;10371919;28;20438;-60
2024/03/03 09:19:28;;;;;;;5.75;2.33;;;;;;;;;;10368150;28;20510;-61
2024/03/03 09:24:28;;;;;;;5.57;2.15;;;;;;;;;;10369025;28;20493;-59
2024/03/03 09:29:28;;;;;;;13.87;2.40;;;;;;;;;;10371191;28;20025;-59
2024/03/03 09:34:29;;;;;;;3.40;1.90;;;;;;;;;;10371507;28;20436;-59
2024/03/03 09:39:30;;;;;;;5.65;2.13;;;;;;;;;;10366643;28;20040;-59
2024/03/03 09:44:44;;;;;;;3.83;1.80;;;;;;;;;;10370697;28;20026;-59
2024/03/03 09:49:45;;;;;;;2.10;1.83;;;;;;;;;;10369522;28;20432;-62
2024/03/03 09:54:45;;;;;;;7.30;2.63;;;;;;;;;;10371324;28;20409;-61
2024/03/03 09:59:48;;;;;;;12.30;1.88;;;;;;;;;;10368593;28;20026;-61
2024/03/03 10:04:49;;;;;;;3.75;2.17;;;;;;;;;;10368877;28;20493;-61
2024/03/03 10:10:06;;;;;;;8.90;2.17;;;;;;;;;;10367988;28;20026;-61
2024/03/03 10:15:08;;;;;;;4.32;2.13;;;;;;;;;;10369705;28;20059;-61
2024/03/03 10:20:08;;;;;;;3.83;2.03;;;;;;;;;;10369816;28;20030;-61
2024/03/03 10:25:14;;;;;;;7.32;2.28;;;;;;;;;;10368807;28;20029;-61
2024/03/03 10:30:17;;;;;;;3.17;1.88;;;;;;;;;;10368810;28;20109;-61
2024/03/03 10:35:21;;;;;;;4.57;2.03;;;;;;;;;;10366099;28;20028;-61
2024/03/03 10:40:21;;;;;;;19.15;2.35;;;;;;;;;;10362742;28;20026;-61
2024/03/03 10:45:22;;;;;;;14.95;2.38;;;;;;;;;;10367046;28;20026;-61
2024/03/03 10:50:23;;;;;;;9.73;2.15;;;;;;;;;;10364356;28;20037;-60
2024/03/03 10:55:24;;;;;;;6.28;2.20;;;;;;;;;;10367802;28;20026;-60
2024/03/03 11:00:24;;;;;;;8.48;2.25;;;;;;;;;;10369304;28;20034;-60
2024/03/03 11:05:25;;;;;;;4.15;2.08;;;;;;;;;;10367629;28;20413;-60
2024/03/03 11:10:26;;;;;;;6.70;2.47;;;;;;;;;;10366839;28;20101;-60
2024/03/03 11:15:26;;;;;;;5.85;2.13;;;;;;;;;;10368308;28;20034;-60
2024/03/03 11:20:35;;;;;;;3.50;1.83;;;;;;;;;;10368434;28;20026;-60
2024/03/03 11:25:42;;;;;;;3.33;1.95;;;;;;;;;;10367576;28;20025;-60
2024/03/03 11:30:43;;;;;;;4.88;1.90;;;;;;;;;;10367834;28;20505;-60
2024/03/03 11:35:44;;;;;;;5.50;2.30;;;;;;;;;;10366811;28;20141;-60
2024/03/03 11:40:44;;;;;;;2.65;1.63;;;;;;;;;;10368166;28;20022;-60
2024/03/03 11:45:47;;;;;;;2.73;1.70;;;;;;;;;;10366145;28;20021;-60
2024/03/03 11:50:47;;;;;;;3.78;1.77;;;;;;;;;;10366456;28;20452;-60
2024/03/03 11:55:50;;;;;;;3.13;1.88;;;;;;;;;;10367072;28;20026;-60
2024/03/03 12:01:08;;;;;;;5.15;1.85;;;;;;;;;;10367686;28;20026;-60
2024/03/03 12:06:10;;;;;;;2.10;1.73;;;;;;;;;;10362120;28;20543;-60
2024/03/03 12:11:14;;;;;;;3.60;1.92;;;;;;;;;;10365482;28;20079;-60
2024/03/03 12:16:14;;;;;;;5.00;1.52;;;;;;;;;;10366158;28;20034;-60
2024/03/03 12:21:16;;;;;;;3.07;1.60;;;;;;;;;;10366748;28;20034;-61
2024/03/03 12:26:18;;;;;;;3.33;1.60;;;;;;;;;;10373058;28;20593;-60
2024/03/03 12:31:21;;;;;;;1.65;1.55;;;;;;;;;;10374728;28;20113;-60
2024/03/03 12:36:21;;;;;;;2.28;1.58;;;;;;;;;;10374266;28;20080;-60
2024/03/03 12:41:22;;;;;;;2.00;1.67;;;;;;;;;;10375215;28;20083;-60
2024/03/03 12:46:25;;;;;;;2.35;1.60;;;;;;;;;;10374089;28;20037;-61
2024/03/03 12:51:26;;;;;;;1.63;1.52;;;;;;;;;;10373410;28;20029;-60
2024/03/03 12:56:26;;;;;;;5.70;1.80;;;;;;;;;;10372384;28;20033;-60
2024/03/03 13:01:27;;;;;;;4.72;2.00;;;;;;;;;;10373499;28;20034;-60
2024/03/03 13:06:29;;;;;;;2.97;1.70;;;;;;;;;;10371888;28;20042;-63
2024/03/03 13:11:31;;;;;;;4.78;1.80;;;;;;;;;;10372374;28;20397;-62
2024/03/03 13:16:34;;;;;;;1.50;1.40;;;;;;;;;;10371899;28;20037;-60
2024/03/03 13:21:36;;;;;;;4.20;1.67;;;;;;;;;;10372459;28;20029;-60
2024/03/03 13:26:37;;;;;;;4.25;1.40;;;;;;;;;;10368126;28;20033;-60
2024/03/03 13:31:38;;;;;;;1.33;1.23;;;;;;;;;;10371380;28;20030;-60
2024/03/03 13:36:38;;;;;;;3.65;1.60;;;;;;;;;;10370658;28;20038;-60
2024/03/03 13:41:39;;;;;;;2.43;1.90;;;;;;;;;;10371106;28;20033;-60
2024/03/03 13:46:39;;;;;;;2.47;1.50;;;;;;;;;;10371458;28;20458;-60
2024/03/03 13:51:40;;;;;;;2.90;1.80;;;;;;;;;;10370576;28;20381;-59
2024/03/03 13:56:40;;;;;;;2.07;1.50;;;;;;;;;;10372120;28;20033;-60
2024/03/03 14:01:40;;;;;;;3.03;1.60;;;;;;;;;;10370361;28;20459;-60
2024/03/03 14:06:41;;;;;;;2.20;1.60;;;;;;;;;;10369953;28;20455;-60
2024/03/03 14:11:41;;;;;;;4.20;1.60;;;;;;;;;;10369227;28;20981;-60
2024/03/03 14:16:42;;;;;;;6.60;2.17;;;;;;;;;;10370038;28;20455;-60
2024/03/03 14:21:43;;;;;;;4.07;1.70;;;;;;;;;;10370594;28;20065;-60
2024/03/03 14:26:44;;;;;;;3.92;2.38;;;;;;;;;;10365587;28;20394;-60
2024/03/03 14:31:44;;;;;;;2.40;1.63;;;;;;;;;;10369378;28;20064;-60
2024/03/03 14:36:44;;;;;;;2.22;1.58;;;;;;;;;;10368323;28;20153;-60
2024/03/03 14:41:45;;;;;;;3.42;1.67;;;;;;;;;;10369693;28;20037;-60
2024/03/03 14:46:46;;;;;;;1.85;1.48;;;;;;;;;;10368857;28;20026;-60
2024/03/03 14:51:47;;;;;;;2.30;1.60;;;;;;;;;;10367995;28;20466;-63
2024/03/03 14:56:47;;;;;;;2.17;1.58;;;;;;;;;;10368597;28;20026;-60
2024/03/03 15:01:48;;;;;;;2.10;1.80;;;;;;;;;;10367867;28;20037;-60
2024/03/03 15:06:48;;;;;;;1.75;1.55;;;;;;;;;;10367190;28;20456;-61
2024/03/03 15:11:49;;;;;;;2.45;1.30;;;;;;;;;;10369113;28;20032;-61
2024/03/03 15:16:49;;;;;;;2.83;1.70;;;;;;;;;;10366959;28;20071;-61
2024/03/03 15:21:50;;;;;;;3.20;1.63;;;;;;;;;;10368794;28;20519;-61
2024/03/03 15:26:50;;;;;;;3.73;1.70;;;;;;;;;;10365834;28;20030;-61
2024/03/03 15:31:50;;;;;;;3.50;1.65;;;;;;;;;;10367542;28;20495;-61
2024/03/03 15:36:52;;;;;;;3.07;1.63;;;;;;;;;;10367199;28;20022;-61
2024/03/03 15:41:53;;;;;;;8.55;1.85;;;;;;;;;;10366623;28;20597;-62
2024/03/03 15:46:53;;;;;;;7.72;1.60;;;;;;;;;;10363903;28;20466;-61
2024/03/03 15:51:54;;;;;;;3.37;1.87;;;;;;;;;;10366912;28;20101;-61
2024/03/03 15:56:54;;;;;;;2.63;1.80;;;;;;;;;;10365211;28;21025;-60
2024/03/03 16:01:56;;;;;;;5.30;2.20;;;;;;;;;;10366721;28;20076;-64
2024/03/03 16:06:57;;;;;;;4.65;1.92;;;;;;;;;;10364094;28;20594;-64
2024/03/03 16:11:58;;;;;;;9.45;1.70;;;;;;;;;;10366840;28;20029;-64
2024/03/03 16:16:58;;;;;;;3.17;2.03;;;;;;;;;;10364568;28;20021;-63
2024/03/03 16:21:59;;;;;;;9.55;2.00;;;;;;;;;;10365189;28;21004;-63
2024/03/03 16:26:59;;;;;;;7.57;2.38;;;;;;;;;;10366807;28;20026;-64
2024/03/03 16:32:00;;;;;;;16.90;3.33;;;;;;;;;;10364729;28;20026;-63
2024/03/03 16:37:00;;;;;;;14.70;2.13;;;;;;;;;;10366428;28;20030;-63
2024/03/03 16:42:00;;;;;;;4.77;2.00;;;;;;;;;;10366355;28;20722;-64
2024/03/03 16:47:01;;;;;;;2.78;1.92;;;;;;;;;;10358703;28;20440;-63
2024/03/03 16:52:01;;;;;;;4.00;1.90;;;;;;;;;;10366067;28;20105;-64
2024/03/03 16:57:02;;;;;;;4.10;2.17;;;;;;;;;;10365335;28;20034;-64
2024/03/03 17:07:13;;;;;;;2.58;1.73;;;;;;;;;;10412272;28;20041;-52
2024/03/03 17:12:14;;;;;;;11.57;2.47;;;;;;;;;;10418340;28;20435;-53
2024/03/03 17:17:15;;;;;;;5.67;2.20;;;;;;;;;;10414691;28;20025;-53
2024/03/03 17:22:15;;;;;;;5.30;1.88;;;;;;;;;;10413637;28;20914;-55
2024/03/03 17:27:16;;;;;;;9.43;2.25;;;;;;;;;;10413544;28;20037;-53
2024/03/03 17:32:17;;;;;;;13.82;2.67;;;;;;;;;;10413382;28;20095;-57
2024/03/03 17:37:18;;;;;;;6.65;2.50;;;;;;;;;;10413479;28;20032;-53
2024/03/03 17:42:20;;;;;;;10.67;2.40;;;;;;;;;;10413651;28;20028;-57
2024/03/03 17:47:21;;;;;;;7.15;2.22;;;;;;;;;;10413232;28;20473;-53
2024/03/03 17:52:21;;;;;;;12.25;2.17;;;;;;;;;;10412454;28;20028;-53
2024/03/03 17:57:22;;;;;;;5.07;2.03;;;;;;;;;;10412382;28;20033;-53
2024/03/03 18:02:22;;;;;;;5.93;2.23;;;;;;;;;;10411956;28;20950;-58
2024/03/03 18:07:23;;;;;;;5.37;2.33;;;;;;;;;;10406748;28;20469;-55
2024/03/03 18:12:23;;;;;;;8.02;2.35;;;;;;;;;;10411373;28;20974;-52
2024/03/03 18:17:23;;;;;;;7.38;2.58;;;;;;;;;;10412075;28;20033;-55
2024/03/03 18:22:24;;;;;;;4.65;1.80;;;;;;;;;;10411334;28;20461;-52
2024/03/03 18:27:25;;;;;;;6.63;2.53;;;;;;;;;;10409991;28;20029;-53
2024/03/03 18:32:25;;;;;;;3.30;2.22;;;;;;;;;;10410044;28;20385;-53
2024/03/03 18:37:26;;;;;;;3.97;2.40;;;;;;;;;;10410508;28;20029;-54
2024/03/03 18:42:27;;;;;;;6.07;2.25;;;;;;;;;;10409344;28;21043;-59
2024/03/03 18:47:28;;;;;;;11.63;2.55;;;;;;;;;;10409866;28;20053;-53
2024/03/03 18:52:29;;;;;;;8.38;2.67;;;;;;;;;;10408334;28;20440;-55
2024/03/03 18:57:31;;;;;;;7.68;2.95;;;;;;;;;;10409670;28;20033;-58
2024/03/03 19:02:31;;;;;;;5.10;2.83;;;;;;;;;;10406016;28;20037;-53
2024/03/03 19:07:32;;;;;;;12.63;2.93;;;;;;;;;;10407541;28;20491;-55
2024/03/03 19:12:33;;;;;;;5.53;2.47;;;;;;;;;;10409533;28;20451;-52
2024/03/03 19:17:34;;;;;;;7.07;2.83;;;;;;;;;;10403930;28;20062;-53
2024/03/03 19:22:39;;;;;;;8.10;2.97;;;;;;;;;;10406796;28;20515;-52
2024/03/03 19:27:39;;;;;;;9.70;2.90;;;;;;;;;;10408081;28;20045;-53
2024/03/03 19:32:40;;;;;;;7.37;2.70;;;;;;;;;;10405986;28;20025;-55
2024/03/03 19:37:40;;;;;;;8.10;2.55;;;;;;;;;;10408651;28;21049;-54
2024/03/03 19:42:41;;;;;;;6.60;2.60;;;;;;;;;;10406168;28;20473;-53
2024/03/03 19:47:42;;;;;;;7.23;3.10;;;;;;;;;;10405649;28;20022;-53
2024/03/03 19:52:43;;;;;;;6.63;2.65;;;;;;;;;;10404363;28;20451;-53
2024/03/03 19:57:43;;;;;;;5.20;2.47;;;;;;;;;;10404795;28;20477;-53
2024/03/03 20:02:44;;;;;;;5.43;2.38;;;;;;;;;;10405185;28;20042;-59
2024/03/03 20:07:44;;;;;;;7.60;2.08;;;;;;;;;;10404826;28;20026;-53
2024/03/03 20:12:44;;;;;;;10.03;2.53;;;;;;;;;;10407843;28;20028;-54
2024/03/03 20:17:45;;;;;;;9.43;2.30;;;;;;;;;;10404868;28;20423;-58
2024/03/03 20:22:47;;;;;;;4.37;2.17;;;;;;;;;;10405573;28;20443;-53
2024/03/03 20:27:47;;;;;;;6.43;2.28;;;;;;;;;;10406977;28;20503;-58
2024/03/03 20:32:48;;;;;;;5.45;2.67;;;;;;;;;;10402648;28;20436;-58
2024/03/03 20:37:48;;;;;;;3.85;2.20;;;;;;;;;;10406337;28;20032;-55
2024/03/03 20:42:49;;;;;;;7.97;2.10;;;;;;;;;;10406073;28;20608;-57
2024/03/03 20:47:49;;;;;;;8.68;2.83;;;;;;;;;;10413743;28;20025;-57
2024/03/03 20:52:50;;;;;;;6.68;2.35;;;;;;;;;;10413991;28;20033;-53
2024/03/03 20:57:50;;;;;;;5.28;2.40;;;;;;;;;;10413243;28;20091;-54
2024/03/03 21:02:53;;;;;;;6.05;2.20;;;;;;;;;;10414326;28;20049;-54
2024/03/03 21:07:54;;;;;;;2.88;2.03;;;;;;;;;;10413097;28;20037;-53
2024/03/03 21:12:54;;;;;;;4.83;2.27;;;;;;;;;;10412760;28;20373;-52
2024/03/03 21:17:55;;;;;;;4.83;2.40;;;;;;;;;;10412284;28;20438;-53
2024/03/03 21:22:55;;;;;;;2.27;1.80;;;;;;;;;;10412157;28;20845;-53
2024/03/03 21:27:55;;;;;;;4.63;2.28;;;;;;;;;;10410620;28;20459;-53
2024/03/03 21:32:56;;;;;;;4.07;2.13;;;;;;;;;;10407747;28;20098;-53
2024/03/03 21:37:56;;;;;;;7.60;2.60;;;;;;;;;;10411317;28;20493;-48
2024/03/03 21:42:57;;;;;;;3.37;2.47;;;;;;;;;;10410811;28;20747;-52
2024/03/03 21:47:57;;;;;;;6.50;2.83;;;;;;;;;;10400846;28;20454;-52
2024/03/03 21:52:58;;;;;;;10.60;2.67;;;;;;;;;;10409819;28;20465;-51
2024/03/03 21:57:59;;;;;;;8.00;2.75;;;;;;;;;;10410030;28;20443;-50
2024/03/03 22:03:00;;;;;;;7.25;2.67;;;;;;;;;;10411167;28;20505;-51
2024/03/03 22:08:00;;;;;;;4.13;2.30;;;;;;;;;;10408790;28;20027;-52
2024/03/03 22:13:01;;;;;;;10.25;2.88;;;;;;;;;;10409133;28;20029;-50
2024/03/03 22:18:01;;;;;;;13.40;3.05;;;;;;;;;;10408351;28;20025;-51
2024/03/03 22:23:02;;;;;;;8.98;2.58;;;;;;;;;;10409058;28;20545;-52
2024/03/03 22:28:03;;;;;;;6.07;2.90;;;;;;;;;;10408529;28;20492;-55
2024/03/03 22:33:04;;;;;;;8.73;2.20;;;;;;;;;;10409168;28;20037;-55
2024/03/03 22:38:05;;;;;;;7.13;2.53;;;;;;;;;;10410557;28;20064;-55
2024/03/03 22:43:08;;;;;;;11.05;2.45;;;;;;;;;;10410450;28;20403;-53
2024/03/03 22:48:09;;;;;;;3.38;1.95;;;;;;;;;;10406481;28;20068;-59
2024/03/03 22:53:10;;;;;;;9.13;2.78;;;;;;;;;;10410589;28;20041;-51
2024/03/03 22:58:10;;;;;;;7.57;2.40;;;;;;;;;;10407595;28;20411;-56
2024/03/03 23:03:11;;;;;;;3.50;2.10;;;;;;;;;;10409362;28;20049;-52
2024/03/03 23:08:11;;;;;;;4.45;2.33;;;;;;;;;;10409812;28;20083;-52
2024/03/03 23:13:12;;;;;;;10.13;2.10;;;;;;;;;;10409208;28;20022;-49
2024/03/03 23:18:13;;;;;;;7.28;2.33;;;;;;;;;;10408829;28;20364;-51
2024/03/03 23:23:16;;;;;;;4.07;1.95;;;;;;;;;;10408446;28;20018;-52
2024/03/03 23:28:17;;;;;;;3.60;2.28;;;;;;;;;;10408613;28;20420;-52
2024/03/03 23:33:18;;;;;;;5.35;2.40;;;;;;;;;;10406804;28;20025;-54
2024/03/03 23:38:18;;;;;;;4.78;2.00;;;;;;;;;;10408295;28;20033;-51
2024/03/03 23:43:19;;;;;;;8.20;2.13;;;;;;;;;;10408558;28;20108;-60
2024/03/03 23:48:20;;;;;;;8.70;1.88;;;;;;;;;;10408368;28;20632;-58
2024/03/03 23:53:21;;;;;;;5.28;1.95;;;;;;;;;;10407985;28;20358;-57
2024/03/03 23:58:21;;;;;;;4.45;1.90;;;;;;;;;;10404955;28;20278;-59
